HEAX

El Nouzha Airport

Alexandria, Egypt
METAR HEAX 201200Z 34008KT 9999 SCT020 28/18 Q1013 NOSIG
Observed Flight Rules
Oct-20 @ 12:00 UTC (52 minutes ago) Visual Flight Rules
Wind Visibility Clouds
340° at 8 knots 10,000+ meters
  • Scattered at 2,000' AGL
Temperatures Readings
Current 28°C / 82°F
Dewpoint 18°C / 64°F
Humidity 55%
Altimeter 29.91" Hg
Pressure 1013 hPa
Elevation 7
METAR HEAX 201200Z 34008KT 9999 SCT020 28/18 Q1013 NOSIG
Observed Flight Rules
Oct-20 @ 12:00 UTC
(52 minutes ago)
VFR
Wind Visibility
340° at 8 knots 10,000+ meters
Clouds
  • Scattered at 2,000' AGL
Temperature Dewpoint
28°C / 82°F 18°C / 64°F
Humidity Altimeter Pressure
55% 29.91" Hg 1013 hPa